Terminal Aerodrome Forecast
Issued by NWS

Home | Current Version | Previous Version | Text Only | Print | Product List | Glossary On
Versions: 1 2 3 4 5 6 7 8 9 10 11 12 13 14 15
370
FTUS45 KRIW 141720
TAFCOD
TAF
KCOD 141720Z 1418/1518 26014G24KT P6SM FEW090 SCT200
     FM142000 02007KT P6SM VCSH BKN060 WS020/30030KT
     FM150200 VRB06KT P6SM SCT070 WS020/30030KT
     FM150900 25012G18KT P6SM SCT070 BKN110
      AMD LTD TO CLD VIS AND WIND=

USA.gov is the U.S. government's official web portal to all federal, state and local government web resources and services.